sensor_id;sensor_type;location;lat;lon;timestamp;P1;durP1;ratioP1;P2;durP2;ratioP2
11791;SDS011;5953;52.372;9.918;2023-04-24T00:00:47;1.77;;;0.73;;
11791;SDS011;5953;52.372;9.918;2023-04-24T00:03:15;1.70;;;0.77;;
11791;SDS011;5953;52.372;9.918;2023-04-24T00:05:43;0.70;;;0.70;;
11791;SDS011;5953;52.372;9.918;2023-04-24T00:08:13;1.87;;;0.90;;
11791;SDS011;5953;52.372;9.918;2023-04-24T00:10:41;1.83;;;0.93;;
11791;SDS011;5953;52.372;9.918;2023-04-24T00:13:09;1.90;;;0.90;;
11791;SDS011;5953;52.372;9.918;2023-04-24T00:15:36;1.80;;;0.80;;
11791;SDS011;5953;52.372;9.918;2023-04-24T00:18:04;1.10;;;1.00;;
11791;SDS011;5953;52.372;9.918;2023-04-24T00:20:32;1.03;;;0.90;;
11791;SDS011;5953;52.372;9.918;2023-04-24T00:23:01;1.27;;;1.10;;
11791;SDS011;5953;52.372;9.918;2023-04-24T00:25:31;0.90;;;0.80;;
11791;SDS011;5953;52.372;9.918;2023-04-24T00:27:58;1.20;;;0.87;;
11791;SDS011;5953;52.372;9.918;2023-04-24T00:30:26;1.80;;;0.90;;
11791;SDS011;5953;52.372;9.918;2023-04-24T00:32:54;0.80;;;0.80;;
11791;SDS011;5953;52.372;9.918;2023-04-24T00:35:22;1.77;;;1.03;;
11791;SDS011;5953;52.372;9.918;2023-04-24T00:37:51;1.23;;;0.70;;
11791;SDS011;5953;52.372;9.918;2023-04-24T00:40:19;2.00;;;1.00;;
11791;SDS011;5953;52.372;9.918;2023-04-24T00:42:48;2.03;;;0.90;;
11791;SDS011;5953;52.372;9.918;2023-04-24T00:45:16;1.17;;;0.97;;
11791;SDS011;5953;52.372;9.918;2023-04-24T00:47:44;0.70;;;0.60;;
11791;SDS011;5953;52.372;9.918;2023-04-24T00:50:14;0.80;;;0.80;;
11791;SDS011;5953;52.372;9.918;2023-04-24T00:52:43;1.00;;;0.83;;
11791;SDS011;5953;52.372;9.918;2023-04-24T00:55:11;1.23;;;0.80;;
11791;SDS011;5953;52.372;9.918;2023-04-24T00:57:38;1.03;;;0.90;;
11791;SDS011;5953;52.372;9.918;2023-04-24T01:00:09;3.10;;;1.37;;
11791;SDS011;5953;52.372;9.918;2023-04-24T01:02:38;1.17;;;1.10;;
11791;SDS011;5953;52.372;9.918;2023-04-24T01:05:10;0.80;;;0.80;;
11791;SDS011;5953;52.372;9.918;2023-04-24T01:07:39;1.77;;;0.90;;
11791;SDS011;5953;52.372;9.918;2023-04-24T01:10:11;1.00;;;0.90;;
11791;SDS011;5953;52.372;9.918;2023-04-24T01:12:43;2.37;;;1.20;;
11791;SDS011;5953;52.372;9.918;2023-04-24T01:15:13;0.90;;;0.90;;
11791;SDS011;5953;52.372;9.918;2023-04-24T01:17:40;2.07;;;1.00;;
11791;SDS011;5953;52.372;9.918;2023-04-24T01:20:09;0.73;;;0.73;;
11791;SDS011;5953;52.372;9.918;2023-04-24T01:22:39;1.30;;;0.90;;
11791;SDS011;5953;52.372;9.918;2023-04-24T01:25:08;1.30;;;0.80;;
11791;SDS011;5953;52.372;9.918;2023-04-24T01:27:36;1.27;;;0.90;;
11791;SDS011;5953;52.372;9.918;2023-04-24T01:30:04;0.67;;;0.67;;
11791;SDS011;5953;52.372;9.918;2023-04-24T01:32:33;1.03;;;0.77;;
11791;SDS011;5953;52.372;9.918;2023-04-24T01:35:01;1.00;;;0.90;;
11791;SDS011;5953;52.372;9.918;2023-04-24T01:37:30;1.17;;;0.70;;
11791;SDS011;5953;52.372;9.918;2023-04-24T01:40:00;1.20;;;1.10;;
11791;SDS011;5953;52.372;9.918;2023-04-24T01:42:27;1.00;;;0.80;;
11791;SDS011;5953;52.372;9.918;2023-04-24T01:44:56;0.97;;;0.90;;
11791;SDS011;5953;52.372;9.918;2023-04-24T01:47:24;1.23;;;1.07;;
11791;SDS011;5953;52.372;9.918;2023-04-24T01:49:52;0.70;;;0.70;;
11791;SDS011;5953;52.372;9.918;2023-04-24T01:52:20;1.10;;;0.70;;
11791;SDS011;5953;52.372;9.918;2023-04-24T01:54:48;0.70;;;0.60;;
11791;SDS011;5953;52.372;9.918;2023-04-24T01:57:17;1.03;;;0.60;;
11791;SDS011;5953;52.372;9.918;2023-04-24T01:59:45;1.03;;;0.90;;
11791;SDS011;5953;52.372;9.918;2023-04-24T02:02:13;1.40;;;0.73;;
11791;SDS011;5953;52.372;9.918;2023-04-24T02:04:41;1.03;;;0.80;;
11791;SDS011;5953;52.372;9.918;2023-04-24T02:07:08;0.80;;;0.80;;
11791;SDS011;5953;52.372;9.918;2023-04-24T02:09:36;0.80;;;0.80;;
11791;SDS011;5953;52.372;9.918;2023-04-24T02:12:04;1.67;;;0.70;;
11791;SDS011;5953;52.372;9.918;2023-04-24T02:14:33;0.87;;;0.70;;
11791;SDS011;5953;52.372;9.918;2023-04-24T02:17:01;1.07;;;1.00;;
11791;SDS011;5953;52.372;9.918;2023-04-24T02:19:29;1.57;;;1.00;;
11791;SDS011;5953;52.372;9.918;2023-04-24T02:21:57;0.93;;;0.93;;
11791;SDS011;5953;52.372;9.918;2023-04-24T02:24:24;1.50;;;0.90;;
11791;SDS011;5953;52.372;9.918;2023-04-24T02:26:52;0.73;;;0.73;;
11791;SDS011;5953;52.372;9.918;2023-04-24T02:29:20;0.80;;;0.80;;
11791;SDS011;5953;52.372;9.918;2023-04-24T02:31:49;1.30;;;1.10;;
11791;SDS011;5953;52.372;9.918;2023-04-24T02:34:17;1.13;;;0.83;;
11791;SDS011;5953;52.372;9.918;2023-04-24T02:36:45;2.73;;;1.00;;
11791;SDS011;5953;52.372;9.918;2023-04-24T02:39:12;2.07;;;1.20;;
11791;SDS011;5953;52.372;9.918;2023-04-24T02:41:43;0.83;;;0.83;;
11791;SDS011;5953;52.372;9.918;2023-04-24T02:44:11;1.10;;;1.00;;
11791;SDS011;5953;52.372;9.918;2023-04-24T02:46:39;1.53;;;1.07;;
11791;SDS011;5953;52.372;9.918;2023-04-24T02:49:08;1.00;;;0.77;;
11791;SDS011;5953;52.372;9.918;2023-04-24T02:51:38;2.00;;;1.10;;
11791;SDS011;5953;52.372;9.918;2023-04-24T02:54:07;1.53;;;1.33;;
11791;SDS011;5953;52.372;9.918;2023-04-24T02:56:36;1.47;;;0.90;;
11791;SDS011;5953;52.372;9.918;2023-04-24T02:59:04;0.87;;;0.83;;
11791;SDS011;5953;52.372;9.918;2023-04-24T03:01:31;0.87;;;0.83;;
11791;SDS011;5953;52.372;9.918;2023-04-24T03:03:59;1.60;;;0.93;;
11791;SDS011;5953;52.372;9.918;2023-04-24T03:06:29;0.90;;;0.90;;
11791;SDS011;5953;52.372;9.918;2023-04-24T03:08:57;2.20;;;1.00;;
11791;SDS011;5953;52.372;9.918;2023-04-24T03:11:25;1.97;;;1.00;;
11791;SDS011;5953;52.372;9.918;2023-04-24T03:13:53;1.47;;;1.10;;
11791;SDS011;5953;52.372;9.918;2023-04-24T03:16:20;2.23;;;1.10;;
11791;SDS011;5953;52.372;9.918;2023-04-24T03:18:48;2.33;;;1.10;;
11791;SDS011;5953;52.372;9.918;2023-04-24T03:21:16;1.77;;;1.00;;
11791;SDS011;5953;52.372;9.918;2023-04-24T03:23:45;0.90;;;0.90;;
11791;SDS011;5953;52.372;9.918;2023-04-24T03:26:13;1.90;;;0.90;;
11791;SDS011;5953;52.372;9.918;2023-04-24T03:28:41;1.57;;;1.07;;
11791;SDS011;5953;52.372;9.918;2023-04-24T03:31:08;0.90;;;0.60;;
11791;SDS011;5953;52.372;9.918;2023-04-24T03:33:36;1.27;;;1.00;;
11791;SDS011;5953;52.372;9.918;2023-04-24T03:36:04;1.43;;;1.20;;
11791;SDS011;5953;52.372;9.918;2023-04-24T03:38:32;1.00;;;0.77;;
11791;SDS011;5953;52.372;9.918;2023-04-24T03:41:01;2.10;;;1.00;;
11791;SDS011;5953;52.372;9.918;2023-04-24T03:43:29;1.80;;;1.37;;
11791;SDS011;5953;52.372;9.918;2023-04-24T03:45:59;1.40;;;0.83;;
11791;SDS011;5953;52.372;9.918;2023-04-24T03:48:27;0.70;;;0.70;;
11791;SDS011;5953;52.372;9.918;2023-04-24T03:50:55;1.00;;;0.70;;
11791;SDS011;5953;52.372;9.918;2023-04-24T03:53:22;0.83;;;0.80;;
11791;SDS011;5953;52.372;9.918;2023-04-24T03:55:50;1.73;;;0.90;;
11791;SDS011;5953;52.372;9.918;2023-04-24T03:58:19;1.87;;;1.00;;
11791;SDS011;5953;52.372;9.918;2023-04-24T04:00:47;1.47;;;0.90;;
11791;SDS011;5953;52.372;9.918;2023-04-24T04:03:16;1.70;;;0.87;;
11791;SDS011;5953;52.372;9.918;2023-04-24T04:05:44;1.40;;;0.80;;
11791;SDS011;5953;52.372;9.918;2023-04-24T04:08:12;0.60;;;0.57;;
11791;SDS011;5953;52.372;9.918;2023-04-24T04:10:39;0.77;;;0.73;;
11791;SDS011;5953;52.372;9.918;2023-04-24T04:13:07;0.60;;;0.60;;
11791;SDS011;5953;52.372;9.918;2023-04-24T04:15:36;1.10;;;0.60;;
11791;SDS011;5953;52.372;9.918;2023-04-24T04:18:04;1.47;;;0.60;;
11791;SDS011;5953;52.372;9.918;2023-04-24T04:20:32;2.10;;;0.77;;
11791;SDS011;5953;52.372;9.918;2023-04-24T04:23:00;0.60;;;0.60;;
11791;SDS011;5953;52.372;9.918;2023-04-24T04:25:27;1.77;;;0.73;;
11791;SDS011;5953;52.372;9.918;2023-04-24T04:27:55;0.70;;;0.70;;
11791;SDS011;5953;52.372;9.918;2023-04-24T04:30:24;1.07;;;0.77;;
11791;SDS011;5953;52.372;9.918;2023-04-24T04:32:53;0.90;;;0.50;;
11791;SDS011;5953;52.372;9.918;2023-04-24T04:35:21;0.60;;;0.60;;
11791;SDS011;5953;52.372;9.918;2023-04-24T04:37:49;2.53;;;0.70;;
11791;SDS011;5953;52.372;9.918;2023-04-24T04:40:17;0.70;;;0.70;;
11791;SDS011;5953;52.372;9.918;2023-04-24T04:42:45;1.37;;;0.80;;
11791;SDS011;5953;52.372;9.918;2023-04-24T04:45:14;1.83;;;0.80;;
11791;SDS011;5953;52.372;9.918;2023-04-24T04:47:43;0.70;;;0.70;;
11791;SDS011;5953;52.372;9.918;2023-04-24T04:50:13;1.80;;;0.73;;
11791;SDS011;5953;52.372;9.918;2023-04-24T04:52:40;1.00;;;0.70;;
11791;SDS011;5953;52.372;9.918;2023-04-24T04:55:08;1.10;;;1.00;;
11791;SDS011;5953;52.372;9.918;2023-04-24T04:57:39;4.30;;;0.90;;
11791;SDS011;5953;52.372;9.918;2023-04-24T05:00:07;0.70;;;0.70;;
11791;SDS011;5953;52.372;9.918;2023-04-24T05:02:37;2.00;;;0.83;;
11791;SDS011;5953;52.372;9.918;2023-04-24T05:05:07;3.13;;;1.33;;
11791;SDS011;5953;52.372;9.918;2023-04-24T05:07:37;2.60;;;1.30;;
11791;SDS011;5953;52.372;9.918;2023-04-24T05:10:05;1.20;;;0.90;;
11791;SDS011;5953;52.372;9.918;2023-04-24T05:12:34;0.93;;;0.90;;
11791;SDS011;5953;52.372;9.918;2023-04-24T05:15:02;1.30;;;0.80;;
11791;SDS011;5953;52.372;9.918;2023-04-24T05:17:30;0.93;;;0.93;;
11791;SDS011;5953;52.372;9.918;2023-04-24T05:19:58;1.87;;;0.83;;
11791;SDS011;5953;52.372;9.918;2023-04-24T05:22:26;2.00;;;1.00;;
11791;SDS011;5953;52.372;9.918;2023-04-24T05:24:56;1.80;;;1.00;;
11791;SDS011;5953;52.372;9.918;2023-04-24T05:27:24;3.03;;;1.20;;
11791;SDS011;5953;52.372;9.918;2023-04-24T05:29:52;2.23;;;1.20;;
11791;SDS011;5953;52.372;9.918;2023-04-24T05:32:20;4.60;;;0.90;;
11791;SDS011;5953;52.372;9.918;2023-04-24T05:34:47;0.90;;;0.80;;
11791;SDS011;5953;52.372;9.918;2023-04-24T05:37:15;1.07;;;0.80;;
11791;SDS011;5953;52.372;9.918;2023-04-24T05:39:43;1.80;;;1.20;;
11791;SDS011;5953;52.372;9.918;2023-04-24T05:42:12;0.97;;;0.80;;
11791;SDS011;5953;52.372;9.918;2023-04-24T05:44:40;2.63;;;0.90;;
11791;SDS011;5953;52.372;9.918;2023-04-24T05:47:08;1.37;;;0.90;;
11791;SDS011;5953;52.372;9.918;2023-04-24T05:49:36;0.90;;;0.70;;
11791;SDS011;5953;52.372;9.918;2023-04-24T05:52:04;1.63;;;1.13;;
11791;SDS011;5953;52.372;9.918;2023-04-24T05:54:35;3.73;;;1.43;;
11791;SDS011;5953;52.372;9.918;2023-04-24T05:57:03;3.40;;;1.10;;
11791;SDS011;5953;52.372;9.918;2023-04-24T05:59:36;1.20;;;1.10;;
11791;SDS011;5953;52.372;9.918;2023-04-24T06:02:04;1.33;;;1.10;;
11791;SDS011;5953;52.372;9.918;2023-04-24T06:04:33;1.93;;;1.07;;
11791;SDS011;5953;52.372;9.918;2023-04-24T06:07:01;1.10;;;1.10;;
11791;SDS011;5953;52.372;9.918;2023-04-24T06:09:29;1.20;;;1.10;;
11791;SDS011;5953;52.372;9.918;2023-04-24T06:11:57;1.50;;;1.40;;
11791;SDS011;5953;52.372;9.918;2023-04-24T06:14:26;6.03;;;2.03;;
11791;SDS011;5953;52.372;9.918;2023-04-24T06:16:55;1.97;;;1.43;;
11791;SDS011;5953;52.372;9.918;2023-04-24T06:19:23;2.17;;;1.27;;
11791;SDS011;5953;52.372;9.918;2023-04-24T06:21:51;2.47;;;1.50;;
11791;SDS011;5953;52.372;9.918;2023-04-24T06:24:19;1.33;;;1.10;;
11791;SDS011;5953;52.372;9.918;2023-04-24T06:26:47;1.33;;;1.00;;
11791;SDS011;5953;52.372;9.918;2023-04-24T06:29:15;2.67;;;1.40;;
11791;SDS011;5953;52.372;9.918;2023-04-24T06:31:43;4.30;;;1.07;;
11791;SDS011;5953;52.372;9.918;2023-04-24T06:34:12;1.97;;;1.33;;
11791;SDS011;5953;52.372;9.918;2023-04-24T06:36:40;1.60;;;1.50;;
11791;SDS011;5953;52.372;9.918;2023-04-24T06:39:08;2.00;;;1.40;;
11791;SDS011;5953;52.372;9.918;2023-04-24T06:41:36;3.73;;;1.83;;
11791;SDS011;5953;52.372;9.918;2023-04-24T06:44:04;3.27;;;1.53;;
11791;SDS011;5953;52.372;9.918;2023-04-24T06:46:32;2.00;;;1.80;;
11791;SDS011;5953;52.372;9.918;2023-04-24T06:49:00;2.53;;;1.80;;
11791;SDS011;5953;52.372;9.918;2023-04-24T06:51:29;3.47;;;1.93;;
11791;SDS011;5953;52.372;9.918;2023-04-24T06:53:59;3.13;;;1.80;;
11791;SDS011;5953;52.372;9.918;2023-04-24T06:56:27;3.47;;;2.13;;
11791;SDS011;5953;52.372;9.918;2023-04-24T06:58:55;2.00;;;1.77;;
11791;SDS011;5953;52.372;9.918;2023-04-24T07:01:24;5.33;;;2.33;;
11791;SDS011;5953;52.372;9.918;2023-04-24T07:03:52;2.30;;;2.10;;
11791;SDS011;5953;52.372;9.918;2023-04-24T07:06:20;2.83;;;2.10;;
11791;SDS011;5953;52.372;9.918;2023-04-24T07:08:51;2.60;;;2.13;;
11791;SDS011;5953;52.372;9.918;2023-04-24T07:11:21;4.10;;;2.20;;
11791;SDS011;5953;52.372;9.918;2023-04-24T07:13:49;3.27;;;1.73;;
11791;SDS011;5953;52.372;9.918;2023-04-24T07:16:17;2.83;;;1.70;;
11791;SDS011;5953;52.372;9.918;2023-04-24T07:18:45;3.63;;;1.93;;
11791;SDS011;5953;52.372;9.918;2023-04-24T07:21:12;3.70;;;2.60;;
11791;SDS011;5953;52.372;9.918;2023-04-24T07:23:40;2.83;;;2.57;;
11791;SDS011;5953;52.372;9.918;2023-04-24T07:26:09;3.97;;;3.10;;
11791;SDS011;5953;52.372;9.918;2023-04-24T07:28:38;3.77;;;2.60;;
11791;SDS011;5953;52.372;9.918;2023-04-24T07:31:06;3.20;;;2.90;;
11791;SDS011;5953;52.372;9.918;2023-04-24T07:33:34;4.40;;;3.70;;
11791;SDS011;5953;52.372;9.918;2023-04-24T07:36:02;4.40;;;3.40;;
11791;SDS011;5953;52.372;9.918;2023-04-24T07:38:31;4.77;;;3.97;;
11791;SDS011;5953;52.372;9.918;2023-04-24T07:40:59;4.10;;;3.70;;
11791;SDS011;5953;52.372;9.918;2023-04-24T07:43:28;4.40;;;3.47;;
11791;SDS011;5953;52.372;9.918;2023-04-24T07:45:56;3.87;;;3.57;;
11791;SDS011;5953;52.372;9.918;2023-04-24T07:48:24;4.73;;;4.03;;
11791;SDS011;5953;52.372;9.918;2023-04-24T07:50:52;4.53;;;4.13;;
11791;SDS011;5953;52.372;9.918;2023-04-24T07:53:20;4.23;;;3.83;;
11791;SDS011;5953;52.372;9.918;2023-04-24T07:55:48;4.60;;;3.90;;
11791;SDS011;5953;52.372;9.918;2023-04-24T07:58:16;6.73;;;3.80;;
11791;SDS011;5953;52.372;9.918;2023-04-24T08:00:45;7.33;;;3.90;;
11791;SDS011;5953;52.372;9.918;2023-04-24T08:03:13;3.53;;;3.23;;
11791;SDS011;5953;52.372;9.918;2023-04-24T08:05:41;5.13;;;3.97;;
11791;SDS011;5953;52.372;9.918;2023-04-24T08:08:09;5.07;;;4.40;;
11791;SDS011;5953;52.372;9.918;2023-04-24T08:10:37;5.07;;;4.60;;
11791;SDS011;5953;52.372;9.918;2023-04-24T08:13:04;5.60;;;4.70;;
11791;SDS011;5953;52.372;9.918;2023-04-24T08:15:32;5.57;;;4.77;;
11791;SDS011;5953;52.372;9.918;2023-04-24T08:18:01;5.20;;;4.70;;
11791;SDS011;5953;52.372;9.918;2023-04-24T08:20:29;4.50;;;4.10;;
11791;SDS011;5953;52.372;9.918;2023-04-24T08:22:57;8.00;;;4.50;;
11791;SDS011;5953;52.372;9.918;2023-04-24T08:25:25;7.57;;;5.77;;
11791;SDS011;5953;52.372;9.918;2023-04-24T08:27:53;5.73;;;5.03;;
11791;SDS011;5953;52.372;9.918;2023-04-24T08:30:20;5.50;;;5.00;;
11791;SDS011;5953;52.372;9.918;2023-04-24T08:32:49;5.57;;;4.93;;
11791;SDS011;5953;52.372;9.918;2023-04-24T08:35:19;6.83;;;5.13;;
11791;SDS011;5953;52.372;9.918;2023-04-24T08:37:46;5.30;;;4.80;;
11791;SDS011;5953;52.372;9.918;2023-04-24T08:40:15;6.37;;;4.90;;
11791;SDS011;5953;52.372;9.918;2023-04-24T08:42:43;5.47;;;4.87;;
11791;SDS011;5953;52.372;9.918;2023-04-24T08:45:12;4.93;;;4.30;;
11791;SDS011;5953;52.372;9.918;2023-04-24T08:47:40;5.77;;;4.90;;
11791;SDS011;5953;52.372;9.918;2023-04-24T08:50:09;8.57;;;5.00;;
11791;SDS011;5953;52.372;9.918;2023-04-24T08:52:40;5.33;;;4.83;;
11791;SDS011;5953;52.372;9.918;2023-04-24T08:55:09;5.30;;;4.80;;
11791;SDS011;5953;52.372;9.918;2023-04-24T08:57:37;6.10;;;4.80;;
11791;SDS011;5953;52.372;9.918;2023-04-24T09:00:07;5.00;;;4.50;;
11791;SDS011;5953;52.372;9.918;2023-04-24T09:02:39;4.47;;;4.07;;
11791;SDS011;5953;52.372;9.918;2023-04-24T09:05:09;8.20;;;4.57;;
11791;SDS011;5953;52.372;9.918;2023-04-24T09:07:38;5.07;;;4.40;;
11791;SDS011;5953;52.372;9.918;2023-04-24T09:10:09;4.73;;;4.33;;
11791;SDS011;5953;52.372;9.918;2023-04-24T09:12:37;4.90;;;4.50;;
11791;SDS011;5953;52.372;9.918;2023-04-24T09:15:06;5.53;;;4.50;;
11791;SDS011;5953;52.372;9.918;2023-04-24T09:17:35;5.27;;;4.77;;
11791;SDS011;5953;52.372;9.918;2023-04-24T09:20:04;5.13;;;4.23;;
11791;SDS011;5953;52.372;9.918;2023-04-24T09:22:33;8.03;;;4.30;;
11791;SDS011;5953;52.372;9.918;2023-04-24T09:25:03;6.93;;;4.93;;
11791;SDS011;5953;52.372;9.918;2023-04-24T09:27:33;5.87;;;4.10;;
11791;SDS011;5953;52.372;9.918;2023-04-24T09:30:01;4.47;;;4.07;;
11791;SDS011;5953;52.372;9.918;2023-04-24T09:32:30;5.47;;;4.00;;
11791;SDS011;5953;52.372;9.918;2023-04-24T09:35:06;4.80;;;4.33;;
11791;SDS011;5953;52.372;9.918;2023-04-24T09:37:35;4.17;;;3.77;;
11791;SDS011;5953;52.372;9.918;2023-04-24T09:40:09;5.17;;;4.70;;
11791;SDS011;5953;52.372;9.918;2023-04-24T09:42:51;3.37;;;3.07;;
11791;SDS011;5953;52.372;9.918;2023-04-24T09:45:20;3.20;;;2.90;;
11791;SDS011;5953;52.372;9.918;2023-04-24T09:47:51;4.43;;;2.37;;
11791;SDS011;5953;52.372;9.918;2023-04-24T09:50:20;2.50;;;2.30;;
11791;SDS011;5953;52.372;9.918;2023-04-24T09:52:55;2.87;;;2.60;;
11791;SDS011;5953;52.372;9.918;2023-04-24T09:55:25;4.07;;;2.73;;
11791;SDS011;5953;52.372;9.918;2023-04-24T09:57:55;3.87;;;3.00;;
11791;SDS011;5953;52.372;9.918;2023-04-24T10:00:26;3.10;;;2.80;;
11791;SDS011;5953;52.372;9.918;2023-04-24T10:02:56;4.17;;;3.00;;
11791;SDS011;5953;52.372;9.918;2023-04-24T10:05:28;4.33;;;3.07;;
11791;SDS011;5953;52.372;9.918;2023-04-24T10:07:58;3.97;;;3.30;;
11791;SDS011;5953;52.372;9.918;2023-04-24T10:10:30;5.43;;;3.03;;
11791;SDS011;5953;52.372;9.918;2023-04-24T10:12:59;4.43;;;2.90;;
11791;SDS011;5953;52.372;9.918;2023-04-24T10:15:27;3.50;;;3.20;;
11791;SDS011;5953;52.372;9.918;2023-04-24T10:17:55;2.90;;;2.53;;
11791;SDS011;5953;52.372;9.918;2023-04-24T10:20:27;3.30;;;3.00;;
11791;SDS011;5953;52.372;9.918;2023-04-24T10:22:57;2.87;;;2.50;;
11791;SDS011;5953;52.372;9.918;2023-04-24T10:25:26;4.23;;;2.80;;
11791;SDS011;5953;52.372;9.918;2023-04-24T10:27:56;3.23;;;2.93;;
11791;SDS011;5953;52.372;9.918;2023-04-24T10:30:26;6.07;;;2.77;;
11791;SDS011;5953;52.372;9.918;2023-04-24T10:32:55;3.00;;;2.80;;
11791;SDS011;5953;52.372;9.918;2023-04-24T10:35:23;3.13;;;2.80;;
11791;SDS011;5953;52.372;9.918;2023-04-24T10:37:54;3.30;;;2.87;;
11791;SDS011;5953;52.372;9.918;2023-04-24T10:40:26;2.53;;;2.13;;
11791;SDS011;5953;52.372;9.918;2023-04-24T10:42:58;3.63;;;2.60;;
11791;SDS011;5953;52.372;9.918;2023-04-24T10:45:26;2.70;;;2.50;;
11791;SDS011;5953;52.372;9.918;2023-04-24T10:47:57;2.67;;;2.47;;
11791;SDS011;5953;52.372;9.918;2023-04-24T10:50:41;3.00;;;2.07;;
11791;SDS011;5953;52.372;9.918;2023-04-24T10:53:15;2.20;;;2.00;;
11791;SDS011;5953;52.372;9.918;2023-04-24T10:55:46;1.90;;;1.80;;
11791;SDS011;5953;52.372;9.918;2023-04-24T10:58:17;2.60;;;2.10;;
11791;SDS011;5953;52.372;9.918;2023-04-24T11:00:55;4.07;;;2.17;;
11791;SDS011;5953;52.372;9.918;2023-04-24T11:03:26;2.20;;;2.00;;
11791;SDS011;5953;52.372;9.918;2023-04-24T11:05:56;6.30;;;2.00;;
11791;SDS011;5953;52.372;9.918;2023-04-24T11:08:26;2.10;;;2.00;;
11791;SDS011;5953;52.372;9.918;2023-04-24T11:11:03;2.30;;;1.60;;
11791;SDS011;5953;52.372;9.918;2023-04-24T11:16:39;1.80;;;1.70;;
11791;SDS011;5953;52.372;9.918;2023-04-24T11:19:18;2.73;;;1.60;;
11791;SDS011;5953;52.372;9.918;2023-04-24T11:21:54;2.13;;;1.73;;
11791;SDS011;5953;52.372;9.918;2023-04-24T11:24:29;2.97;;;1.83;;
11791;SDS011;5953;52.372;9.918;2023-04-24T11:26:59;1.70;;;1.60;;
11791;SDS011;5953;52.372;9.918;2023-04-24T11:29:42;3.00;;;2.00;;
11791;SDS011;5953;52.372;9.918;2023-04-24T11:32:15;1.80;;;1.70;;
11791;SDS011;5953;52.372;9.918;2023-04-24T11:34:47;2.80;;;1.90;;
11791;SDS011;5953;52.372;9.918;2023-04-24T11:37:16;2.13;;;1.93;;
11791;SDS011;5953;52.372;9.918;2023-04-24T11:39:44;2.70;;;1.93;;
11791;SDS011;5953;52.372;9.918;2023-04-24T11:42:13;1.70;;;1.60;;
11791;SDS011;5953;52.372;9.918;2023-04-24T11:44:43;3.27;;;1.90;;
11791;SDS011;5953;52.372;9.918;2023-04-24T11:47:13;3.47;;;2.03;;
11791;SDS011;5953;52.372;9.918;2023-04-24T11:49:41;2.20;;;2.00;;
11791;SDS011;5953;52.372;9.918;2023-04-24T11:52:09;1.80;;;1.70;;
11791;SDS011;5953;52.372;9.918;2023-04-24T11:54:37;2.20;;;2.00;;
11791;SDS011;5953;52.372;9.918;2023-04-24T11:57:05;1.77;;;1.63;;
11791;SDS011;5953;52.372;9.918;2023-04-24T11:59:35;4.37;;;1.60;;
11791;SDS011;5953;52.372;9.918;2023-04-24T12:02:06;2.17;;;1.30;;
11791;SDS011;5953;52.372;9.918;2023-04-24T12:04:40;1.50;;;1.23;;
11791;SDS011;5953;52.372;9.918;2023-04-24T12:07:08;2.20;;;1.30;;
11791;SDS011;5953;52.372;9.918;2023-04-24T12:09:40;1.47;;;1.10;;
11791;SDS011;5953;52.372;9.918;2023-04-24T12:12:09;1.10;;;0.63;;
11791;SDS011;5953;52.372;9.918;2023-04-24T12:14:42;1.73;;;1.00;;
11791;SDS011;5953;52.372;9.918;2023-04-24T12:17:12;2.37;;;0.90;;
11791;SDS011;5953;52.372;9.918;2023-04-24T12:19:44;0.70;;;0.70;;
11791;SDS011;5953;52.372;9.918;2023-04-24T12:22:13;1.80;;;0.93;;
11791;SDS011;5953;52.372;9.918;2023-04-24T12:25:00;1.33;;;0.93;;
11791;SDS011;5953;52.372;9.918;2023-04-24T12:27:30;1.83;;;0.87;;
11791;SDS011;5953;52.372;9.918;2023-04-24T12:29:59;1.40;;;0.77;;
11791;SDS011;5953;52.372;9.918;2023-04-24T12:32:29;3.90;;;0.70;;
11791;SDS011;5953;52.372;9.918;2023-04-24T12:34:57;0.90;;;0.70;;
11791;SDS011;5953;52.372;9.918;2023-04-24T12:37:25;0.80;;;0.70;;
11791;SDS011;5953;52.372;9.918;2023-04-24T12:40:00;2.37;;;0.80;;
11791;SDS011;5953;52.372;9.918;2023-04-24T12:42:30;1.53;;;0.90;;
11791;SDS011;5953;52.372;9.918;2023-04-24T12:44:58;1.47;;;1.00;;
11791;SDS011;5953;52.372;9.918;2023-04-24T12:47:28;1.47;;;1.10;;
11791;SDS011;5953;52.372;9.918;2023-04-24T12:49:58;1.37;;;1.27;;
11791;SDS011;5953;52.372;9.918;2023-04-24T12:52:27;1.00;;;1.00;;
11791;SDS011;5953;52.372;9.918;2023-04-24T12:54:56;1.73;;;1.00;;
11791;SDS011;5953;52.372;9.918;2023-04-24T12:57:25;1.40;;;0.97;;
11791;SDS011;5953;52.372;9.918;2023-04-24T12:59:53;0.80;;;0.80;;
11791;SDS011;5953;52.372;9.918;2023-04-24T13:02:22;0.80;;;0.80;;
11791;SDS011;5953;52.372;9.918;2023-04-24T13:04:52;2.30;;;0.60;;
11791;SDS011;5953;52.372;9.918;2023-04-24T13:07:20;1.80;;;0.93;;
11791;SDS011;5953;52.372;9.918;2023-04-24T13:09:49;1.20;;;1.10;;
11791;SDS011;5953;52.372;9.918;2023-04-24T13:12:18;1.40;;;1.30;;
11791;SDS011;5953;52.372;9.918;2023-04-24T13:14:46;1.20;;;1.10;;
11791;SDS011;5953;52.372;9.918;2023-04-24T13:17:14;1.10;;;1.10;;
11791;SDS011;5953;52.372;9.918;2023-04-24T13:19:43;2.27;;;1.07;;
11791;SDS011;5953;52.372;9.918;2023-04-24T13:22:13;0.87;;;0.87;;
11791;SDS011;5953;52.372;9.918;2023-04-24T13:24:41;1.40;;;1.30;;
11791;SDS011;5953;52.372;9.918;2023-04-24T13:27:09;1.23;;;1.13;;
11791;SDS011;5953;52.372;9.918;2023-04-24T13:29:37;1.70;;;1.27;;
11791;SDS011;5953;52.372;9.918;2023-04-24T13:32:05;2.83;;;1.50;;
11791;SDS011;5953;52.372;9.918;2023-04-24T13:34:33;0.93;;;0.90;;
11791;SDS011;5953;52.372;9.918;2023-04-24T13:37:02;1.30;;;1.17;;
11791;SDS011;5953;52.372;9.918;2023-04-24T13:39:32;1.17;;;1.00;;
11791;SDS011;5953;52.372;9.918;2023-04-24T13:42:00;2.93;;;1.20;;
11791;SDS011;5953;52.372;9.918;2023-04-24T13:44:30;1.10;;;1.00;;
11791;SDS011;5953;52.372;9.918;2023-04-24T13:46:58;1.00;;;0.90;;
11791;SDS011;5953;52.372;9.918;2023-04-24T13:49:26;1.07;;;0.97;;
11791;SDS011;5953;52.372;9.918;2023-04-24T13:51:54;1.00;;;0.90;;
11791;SDS011;5953;52.372;9.918;2023-04-24T13:54:23;0.93;;;0.90;;
11791;SDS011;5953;52.372;9.918;2023-04-24T13:56:55;1.40;;;0.80;;
11791;SDS011;5953;52.372;9.918;2023-04-24T13:59:24;0.80;;;0.70;;
11791;SDS011;5953;52.372;9.918;2023-04-24T14:01:52;1.77;;;0.60;;
11791;SDS011;5953;52.372;9.918;2023-04-24T14:04:21;0.67;;;0.60;;
11791;SDS011;5953;52.372;9.918;2023-04-24T14:06:49;0.60;;;0.60;;
11791;SDS011;5953;52.372;9.918;2023-04-24T14:09:17;0.50;;;0.50;;
11791;SDS011;5953;52.372;9.918;2023-04-24T14:11:45;1.03;;;0.53;;
11791;SDS011;5953;52.372;9.918;2023-04-24T14:14:14;0.30;;;0.30;;
11791;SDS011;5953;52.372;9.918;2023-04-24T14:16:42;0.40;;;0.40;;
11791;SDS011;5953;52.372;9.918;2023-04-24T14:19:10;1.20;;;0.40;;
11791;SDS011;5953;52.372;9.918;2023-04-24T14:21:38;0.33;;;0.30;;
11791;SDS011;5953;52.372;9.918;2023-04-24T14:24:06;0.40;;;0.40;;
11791;SDS011;5953;52.372;9.918;2023-04-24T14:26:35;0.63;;;0.50;;
11791;SDS011;5953;52.372;9.918;2023-04-24T14:29:03;0.70;;;0.70;;
11791;SDS011;5953;52.372;9.918;2023-04-24T14:31:41;0.63;;;0.60;;
11791;SDS011;5953;52.372;9.918;2023-04-24T14:34:10;1.27;;;0.80;;
11791;SDS011;5953;52.372;9.918;2023-04-24T14:36:38;1.10;;;1.00;;
11791;SDS011;5953;52.372;9.918;2023-04-24T14:39:06;1.20;;;0.90;;
11791;SDS011;5953;52.372;9.918;2023-04-24T14:41:34;1.10;;;0.93;;
11791;SDS011;5953;52.372;9.918;2023-04-24T14:44:03;1.83;;;1.53;;
11791;SDS011;5953;52.372;9.918;2023-04-24T14:46:31;3.13;;;1.63;;
11791;SDS011;5953;52.372;9.918;2023-04-24T14:49:01;2.50;;;1.87;;
11791;SDS011;5953;52.372;9.918;2023-04-24T14:51:29;1.77;;;1.60;;
11791;SDS011;5953;52.372;9.918;2023-04-24T14:53:58;2.70;;;1.80;;
11791;SDS011;5953;52.372;9.918;2023-04-24T14:56:25;2.43;;;1.77;;
11791;SDS011;5953;52.372;9.918;2023-04-24T14:58:53;2.60;;;1.90;;
11791;SDS011;5953;52.372;9.918;2023-04-24T15:01:22;2.23;;;1.60;;
11791;SDS011;5953;52.372;9.918;2023-04-24T15:03:50;4.60;;;1.67;;
11791;SDS011;5953;52.372;9.918;2023-04-24T15:06:20;1.97;;;1.70;;
11791;SDS011;5953;52.372;9.918;2023-04-24T15:08:48;1.90;;;1.60;;
11791;SDS011;5953;52.372;9.918;2023-04-24T15:11:16;2.83;;;2.00;;
11791;SDS011;5953;52.372;9.918;2023-04-24T15:13:44;5.47;;;2.17;;